sensor_id;sensor_type;location;lat;lon;timestamp;pressure;altitude;pressure_sealevel;temperature
70533;BMP180;58088;51.186;17.130;2022-10-17T00:00:04;101110.20;;;14.20
70533;BMP180;58088;51.186;17.130;2022-10-17T00:02:32;101109.20;;;14.24
70533;BMP180;58088;51.186;17.130;2022-10-17T00:04:58;101104.20;;;14.20
70533;BMP180;58088;51.186;17.130;2022-10-17T00:07:24;101097.60;;;14.24
70533;BMP180;58088;51.186;17.130;2022-10-17T00:09:51;101093.00;;;14.20
70533;BMP180;58088;51.186;17.130;2022-10-17T00:12:17;101092.00;;;14.20
70533;BMP180;58088;51.186;17.130;2022-10-17T00:14:43;101093.20;;;14.20
70533;BMP180;58088;51.186;17.130;2022-10-17T00:17:09;101089.00;;;14.20
70533;BMP180;58088;51.186;17.130;2022-10-17T00:19:35;101087.80;;;14.20
70533;BMP180;58088;51.186;17.130;2022-10-17T00:22:03;101093.60;;;14.20
70533;BMP180;58088;51.186;17.130;2022-10-17T00:24:30;101096.60;;;14.20
70533;BMP180;58088;51.186;17.130;2022-10-17T00:26:56;101102.60;;;14.20
70533;BMP180;58088;51.186;17.130;2022-10-17T00:29:23;101103.40;;;14.20
70533;BMP180;58088;51.186;17.130;2022-10-17T00:31:49;101107.20;;;14.20
70533;BMP180;58088;51.186;17.130;2022-10-17T00:34:18;101110.80;;;14.20
70533;BMP180;58088;51.186;17.130;2022-10-17T00:36:44;101111.80;;;14.20
70533;BMP180;58088;51.186;17.130;2022-10-17T00:39:10;101115.40;;;14.30
70533;BMP180;58088;51.186;17.130;2022-10-17T00:41:38;101103.60;;;14.20
70533;BMP180;58088;51.186;17.130;2022-10-17T00:47:06;101103.00;;;14.30
70533;BMP180;58088;51.186;17.130;2022-10-17T00:49:37;101111.40;;;14.20
70533;BMP180;58088;51.186;17.130;2022-10-17T00:52:27;101116.40;;;14.20
70533;BMP180;58088;51.186;17.130;2022-10-17T00:55:00;101118.60;;;14.10
70533;BMP180;58088;51.186;17.130;2022-10-17T00:57:30;101122.60;;;14.10
70533;BMP180;58088;51.186;17.130;2022-10-17T00:59:59;101124.20;;;14.10
70533;BMP180;58088;51.186;17.130;2022-10-17T01:02:27;101123.60;;;14.20
70533;BMP180;58088;51.186;17.130;2022-10-17T01:04:55;101122.40;;;14.20
70533;BMP180;58088;51.186;17.130;2022-10-17T01:07:22;101124.00;;;14.20
70533;BMP180;58088;51.186;17.130;2022-10-17T01:09:49;101123.80;;;14.20
70533;BMP180;58088;51.186;17.130;2022-10-17T01:18:38;101115.80;;;14.10
70533;BMP180;58088;51.186;17.130;2022-10-17T01:33:57;101117.20;;;14.02
70533;BMP180;58088;51.186;17.130;2022-10-17T01:42:22;101126.20;;;14.00
70533;BMP180;58088;51.186;17.130;2022-10-17T01:45:01;101124.40;;;13.90
70533;BMP180;58088;51.186;17.130;2022-10-17T01:47:31;101120.40;;;13.90
70533;BMP180;58088;51.186;17.130;2022-10-17T01:50:09;101119.60;;;13.90
70533;BMP180;58088;51.186;17.130;2022-10-17T01:52:44;101117.40;;;13.80
70533;BMP180;58088;51.186;17.130;2022-10-17T01:55:38;101116.00;;;13.70
70533;BMP180;58088;51.186;17.130;2022-10-17T01:58:12;101108.40;;;13.70
70533;BMP180;58088;51.186;17.130;2022-10-17T02:00:42;101102.60;;;13.68
70533;BMP180;58088;51.186;17.130;2022-10-17T02:03:33;101102.80;;;13.60
70533;BMP180;58088;51.186;17.130;2022-10-17T02:06:01;101098.00;;;13.60
70533;BMP180;58088;51.186;17.130;2022-10-17T02:08:42;101095.00;;;13.60
70533;BMP180;58088;51.186;17.130;2022-10-17T02:11:13;101100.20;;;13.70
70533;BMP180;58088;51.186;17.130;2022-10-17T02:23:15;101094.40;;;13.80
70533;BMP180;58088;51.186;17.130;2022-10-17T02:29:05;101104.00;;;14.00
70533;BMP180;58088;51.186;17.130;2022-10-17T02:31:39;101116.00;;;14.06
70533;BMP180;58088;51.186;17.130;2022-10-17T02:34:25;101117.80;;;14.12
70533;BMP180;58088;51.186;17.130;2022-10-17T02:36:57;101122.00;;;14.20
70533;BMP180;58088;51.186;17.130;2022-10-17T02:39:27;101128.20;;;14.30
70533;BMP180;58088;51.186;17.130;2022-10-17T02:42:01;101134.20;;;14.40
70533;BMP180;58088;51.186;17.130;2022-10-17T02:44:31;101137.00;;;14.40
70533;BMP180;58088;51.186;17.130;2022-10-17T02:47:10;101140.20;;;14.38
70533;BMP180;58088;51.186;17.130;2022-10-17T02:49:43;101149.60;;;14.30
70533;BMP180;58088;51.186;17.130;2022-10-17T02:52:43;101152.60;;;14.30
70533;BMP180;58088;51.186;17.130;2022-10-17T02:55:24;101149.40;;;14.30
70533;BMP180;58088;51.186;17.130;2022-10-17T02:58:01;101141.40;;;14.30
70533;BMP180;58088;51.186;17.130;2022-10-17T03:00:51;101137.60;;;14.20
70533;BMP180;58088;51.186;17.130;2022-10-17T03:03:27;101151.40;;;14.20
70533;BMP180;58088;51.186;17.130;2022-10-17T03:05:59;101147.60;;;14.30
70533;BMP180;58088;51.186;17.130;2022-10-17T03:08:25;101153.20;;;14.30
70533;BMP180;58088;51.186;17.130;2022-10-17T03:10:51;101153.20;;;14.30
70533;BMP180;58088;51.186;17.130;2022-10-17T03:13:18;101159.00;;;14.34
70533;BMP180;58088;51.186;17.130;2022-10-17T03:15:44;101157.80;;;14.40
70533;BMP180;58088;51.186;17.130;2022-10-17T03:18:11;101149.00;;;14.40
70533;BMP180;58088;51.186;17.130;2022-10-17T03:20:37;101151.40;;;14.40
70533;BMP180;58088;51.186;17.130;2022-10-17T03:23:03;101150.60;;;14.40
70533;BMP180;58088;51.186;17.130;2022-10-17T03:25:30;101147.20;;;14.40
70533;BMP180;58088;51.186;17.130;2022-10-17T03:27:59;101137.00;;;14.30
70533;BMP180;58088;51.186;17.130;2022-10-17T03:30:27;101139.60;;;14.20
70533;BMP180;58088;51.186;17.130;2022-10-17T03:32:54;101140.40;;;14.10
70533;BMP180;58088;51.186;17.130;2022-10-17T03:35:22;101147.40;;;14.10
70533;BMP180;58088;51.186;17.130;2022-10-17T03:37:48;101150.60;;;14.10
70533;BMP180;58088;51.186;17.130;2022-10-17T03:40:15;101155.80;;;14.20
70533;BMP180;58088;51.186;17.130;2022-10-17T03:42:41;101161.00;;;14.20
70533;BMP180;58088;51.186;17.130;2022-10-17T03:45:08;101160.00;;;14.24
70533;BMP180;58088;51.186;17.130;2022-10-17T03:47:34;101166.40;;;14.20
70533;BMP180;58088;51.186;17.130;2022-10-17T03:50:01;101163.60;;;14.20
70533;BMP180;58088;51.186;17.130;2022-10-17T03:52:29;101169.80;;;14.20
70533;BMP180;58088;51.186;17.130;2022-10-17T03:54:55;101165.40;;;14.10
70533;BMP180;58088;51.186;17.130;2022-10-17T03:57:21;101176.00;;;14.02
70533;BMP180;58088;51.186;17.130;2022-10-17T03:59:50;101169.80;;;14.00
70533;BMP180;58088;51.186;17.130;2022-10-17T04:02:18;101171.80;;;14.00
70533;BMP180;58088;51.186;17.130;2022-10-17T04:04:45;101169.20;;;13.90
70533;BMP180;58088;51.186;17.130;2022-10-17T04:07:11;101169.40;;;13.90
70533;BMP180;58088;51.186;17.130;2022-10-17T04:09:39;101174.60;;;13.80
70533;BMP180;58088;51.186;17.130;2022-10-17T04:12:15;101175.60;;;13.70
70533;BMP180;58088;51.186;17.130;2022-10-17T04:14:43;101173.00;;;13.70
70533;BMP180;58088;51.186;17.130;2022-10-17T04:17:09;101174.40;;;13.70
70533;BMP180;58088;51.186;17.130;2022-10-17T04:19:36;101177.40;;;13.70
70533;BMP180;58088;51.186;17.130;2022-10-17T04:22:02;101181.40;;;13.60
70533;BMP180;58088;51.186;17.130;2022-10-17T04:24:29;101177.20;;;13.60
70533;BMP180;58088;51.186;17.130;2022-10-17T04:27:18;101177.00;;;13.52
70533;BMP180;58088;51.186;17.130;2022-10-17T04:29:44;101175.00;;;13.50
70533;BMP180;58088;51.186;17.130;2022-10-17T04:32:15;101177.40;;;13.50
70533;BMP180;58088;51.186;17.130;2022-10-17T04:34:48;101179.80;;;13.50
70533;BMP180;58088;51.186;17.130;2022-10-17T04:37:15;101175.40;;;13.50
70533;BMP180;58088;51.186;17.130;2022-10-17T04:39:42;101178.00;;;13.44
70533;BMP180;58088;51.186;17.130;2022-10-17T04:42:08;101176.40;;;13.40
70533;BMP180;58088;51.186;17.130;2022-10-17T04:44:35;101180.00;;;13.38
70533;BMP180;58088;51.186;17.130;2022-10-17T04:47:01;101179.80;;;13.40
70533;BMP180;58088;51.186;17.130;2022-10-17T04:49:27;101180.20;;;13.40
70533;BMP180;58088;51.186;17.130;2022-10-17T04:51:57;101184.40;;;13.32
70533;BMP180;58088;51.186;17.130;2022-10-17T04:54:36;101181.80;;;13.30
70533;BMP180;58088;51.186;17.130;2022-10-17T04:57:06;101175.00;;;13.20
70533;BMP180;58088;51.186;17.130;2022-10-17T04:59:32;101180.40;;;13.20
70533;BMP180;58088;51.186;17.130;2022-10-17T05:02:14;101185.00;;;13.20
70533;BMP180;58088;51.186;17.130;2022-10-17T05:04:40;101175.80;;;13.20
70533;BMP180;58088;51.186;17.130;2022-10-17T05:07:06;101176.20;;;13.10
70533;BMP180;58088;51.186;17.130;2022-10-17T05:09:47;101180.80;;;13.10
70533;BMP180;58088;51.186;17.130;2022-10-17T05:12:14;101185.00;;;13.10
70533;BMP180;58088;51.186;17.130;2022-10-17T05:14:42;101188.20;;;13.10
70533;BMP180;58088;51.186;17.130;2022-10-17T05:17:08;101187.80;;;13.02
70533;BMP180;58088;51.186;17.130;2022-10-17T05:19:34;101187.20;;;13.00
70533;BMP180;58088;51.186;17.130;2022-10-17T05:22:00;101185.80;;;13.00
70533;BMP180;58088;51.186;17.130;2022-10-17T05:24:27;101194.80;;;13.00
70533;BMP180;58088;51.186;17.130;2022-10-17T05:26:53;101199.40;;;13.00
70533;BMP180;58088;51.186;17.130;2022-10-17T05:29:20;101202.40;;;12.90
70533;BMP180;58088;51.186;17.130;2022-10-17T05:31:50;101209.40;;;12.88
70533;BMP180;58088;51.186;17.130;2022-10-17T05:34:17;101213.00;;;12.80
70533;BMP180;58088;51.186;17.130;2022-10-17T05:36:43;101213.40;;;12.80
70533;BMP180;58088;51.186;17.130;2022-10-17T05:39:12;101220.80;;;12.80
70533;BMP180;58088;51.186;17.130;2022-10-17T05:41:39;101226.00;;;12.90
70533;BMP180;58088;51.186;17.130;2022-10-17T05:44:06;101226.60;;;12.90
70533;BMP180;58088;51.186;17.130;2022-10-17T05:46:43;101228.60;;;12.90
70533;BMP180;58088;51.186;17.130;2022-10-17T05:49:10;101233.60;;;12.90
70533;BMP180;58088;51.186;17.130;2022-10-17T05:51:36;101229.00;;;13.00
70533;BMP180;58088;51.186;17.130;2022-10-17T05:54:05;101233.00;;;13.20
70533;BMP180;58088;51.186;17.130;2022-10-17T05:56:33;101234.40;;;13.46
70533;BMP180;58088;51.186;17.130;2022-10-17T05:59:00;101242.40;;;13.62
70533;BMP180;58088;51.186;17.130;2022-10-17T06:01:49;101244.80;;;13.90
70533;BMP180;58088;51.186;17.130;2022-10-17T06:04:15;101251.00;;;14.12
70533;BMP180;58088;51.186;17.130;2022-10-17T06:06:42;101253.00;;;14.38
70533;BMP180;58088;51.186;17.130;2022-10-17T06:09:09;101252.20;;;14.60
70533;BMP180;58088;51.186;17.130;2022-10-17T06:11:38;101241.80;;;14.80
70533;BMP180;58088;51.186;17.130;2022-10-17T06:14:05;101247.00;;;14.90
70533;BMP180;58088;51.186;17.130;2022-10-17T06:16:32;101249.20;;;15.04
70533;BMP180;58088;51.186;17.130;2022-10-17T06:18:58;101245.80;;;15.26
70533;BMP180;58088;51.186;17.130;2022-10-17T06:21:27;101244.00;;;15.50
70533;BMP180;58088;51.186;17.130;2022-10-17T06:24:01;101243.20;;;15.74
70533;BMP180;58088;51.186;17.130;2022-10-17T06:26:41;101243.80;;;16.00
70533;BMP180;58088;51.186;17.130;2022-10-17T06:29:09;101241.60;;;16.30
70533;BMP180;58088;51.186;17.130;2022-10-17T06:31:42;101250.40;;;16.50
70533;BMP180;58088;51.186;17.130;2022-10-17T06:34:11;101251.00;;;16.70
70533;BMP180;58088;51.186;17.130;2022-10-17T06:36:42;101260.00;;;16.80
70533;BMP180;58088;51.186;17.130;2022-10-17T06:39:13;101260.80;;;17.00
70533;BMP180;58088;51.186;17.130;2022-10-17T06:41:50;101266.60;;;17.20
70533;BMP180;58088;51.186;17.130;2022-10-17T06:44:21;101270.40;;;17.42
70533;BMP180;58088;51.186;17.130;2022-10-17T06:47:11;101265.80;;;17.78
70533;BMP180;58088;51.186;17.130;2022-10-17T06:49:41;101269.60;;;17.96
70533;BMP180;58088;51.186;17.130;2022-10-17T06:52:35;101273.60;;;18.20
70533;BMP180;58088;51.186;17.130;2022-10-17T06:55:24;101281.20;;;18.38
70533;BMP180;58088;51.186;17.130;2022-10-17T06:58:06;101274.40;;;18.50
70533;BMP180;58088;51.186;17.130;2022-10-17T07:01:12;101278.80;;;18.50
70533;BMP180;58088;51.186;17.130;2022-10-17T07:03:39;101284.40;;;18.60
70533;BMP180;58088;51.186;17.130;2022-10-17T07:06:06;101290.80;;;18.80
70533;BMP180;58088;51.186;17.130;2022-10-17T07:08:32;101293.60;;;19.00
70533;BMP180;58088;51.186;17.130;2022-10-17T07:11:12;101290.20;;;19.20
70533;BMP180;58088;51.186;17.130;2022-10-17T07:13:39;101297.20;;;19.16
70533;BMP180;58088;51.186;17.130;2022-10-17T07:16:06;101306.60;;;19.30
70533;BMP180;58088;51.186;17.130;2022-10-17T07:18:34;101304.20;;;19.30
70533;BMP180;58088;51.186;17.130;2022-10-17T07:21:01;101302.80;;;19.38
70533;BMP180;58088;51.186;17.130;2022-10-17T07:23:29;101305.60;;;19.48
70533;BMP180;58088;51.186;17.130;2022-10-17T07:26:06;101309.00;;;19.50
70533;BMP180;58088;51.186;17.130;2022-10-17T07:28:38;101309.60;;;19.64
70533;BMP180;58088;51.186;17.130;2022-10-17T07:31:18;101313.40;;;19.90
70533;BMP180;58088;51.186;17.130;2022-10-17T07:33:48;101311.20;;;20.00
70533;BMP180;58088;51.186;17.130;2022-10-17T07:36:16;101316.60;;;20.20
70533;BMP180;58088;51.186;17.130;2022-10-17T07:38:43;101315.40;;;20.34
70533;BMP180;58088;51.186;17.130;2022-10-17T07:41:12;101316.60;;;20.40
70533;BMP180;58088;51.186;17.130;2022-10-17T07:43:38;101316.00;;;20.40
70533;BMP180;58088;51.186;17.130;2022-10-17T07:46:08;101319.40;;;20.40
70533;BMP180;58088;51.186;17.130;2022-10-17T07:48:38;101318.60;;;20.40
70533;BMP180;58088;51.186;17.130;2022-10-17T07:51:07;101316.00;;;20.50
70533;BMP180;58088;51.186;17.130;2022-10-17T07:53:38;101314.80;;;20.60
70533;BMP180;58088;51.186;17.130;2022-10-17T07:56:08;101318.40;;;20.70
70533;BMP180;58088;51.186;17.130;2022-10-17T07:58:36;101318.00;;;20.80
70533;BMP180;58088;51.186;17.130;2022-10-17T08:01:07;101315.60;;;20.90
70533;BMP180;58088;51.186;17.130;2022-10-17T08:03:35;101313.60;;;21.00
70533;BMP180;58088;51.186;17.130;2022-10-17T08:06:03;101315.00;;;21.00
70533;BMP180;58088;51.186;17.130;2022-10-17T08:08:29;101315.20;;;21.10
70533;BMP180;58088;51.186;17.130;2022-10-17T08:11:03;101312.80;;;21.20
70533;BMP180;58088;51.186;17.130;2022-10-17T08:13:29;101309.20;;;21.30
70533;BMP180;58088;51.186;17.130;2022-10-17T08:16:03;101312.00;;;21.44
70533;BMP180;58088;51.186;17.130;2022-10-17T08:18:29;101309.60;;;21.50
70533;BMP180;58088;51.186;17.130;2022-10-17T08:21:00;101310.40;;;21.50
70533;BMP180;58088;51.186;17.130;2022-10-17T08:23:27;101308.80;;;21.60
70533;BMP180;58088;51.186;17.130;2022-10-17T08:25:53;101310.40;;;21.74
70533;BMP180;58088;51.186;17.130;2022-10-17T08:28:20;101310.00;;;21.90
70533;BMP180;58088;51.186;17.130;2022-10-17T08:30:46;101319.20;;;21.90
70533;BMP180;58088;51.186;17.130;2022-10-17T08:33:12;101316.60;;;22.00
70533;BMP180;58088;51.186;17.130;2022-10-17T08:38:25;101320.40;;;22.20
70533;BMP180;58088;51.186;17.130;2022-10-17T08:40:58;101319.20;;;22.30
70533;BMP180;58088;51.186;17.130;2022-10-17T08:46:36;101316.60;;;22.50
70533;BMP180;58088;51.186;17.130;2022-10-17T08:49:36;101316.80;;;22.68
70533;BMP180;58088;51.186;17.130;2022-10-17T08:55:00;101311.20;;;22.90
70533;BMP180;58088;51.186;17.130;2022-10-17T08:57:27;101311.40;;;22.90
70533;BMP180;58088;51.186;17.130;2022-10-17T08:59:54;101314.00;;;23.00
70533;BMP180;58088;51.186;17.130;2022-10-17T09:02:49;101313.00;;;22.98
70533;BMP180;58088;51.186;17.130;2022-10-17T09:05:26;101314.80;;;23.00
70533;BMP180;58088;51.186;17.130;2022-10-17T09:08:10;101310.00;;;23.00
70533;BMP180;58088;51.186;17.130;2022-10-17T09:13:42;101310.80;;;23.10
70533;BMP180;58088;51.186;17.130;2022-10-17T09:16:48;101316.00;;;23.14
70533;BMP180;58088;51.186;17.130;2022-10-17T09:19:32;101310.40;;;23.22
70533;BMP180;58088;51.186;17.130;2022-10-17T09:22:20;101313.00;;;23.30
70533;BMP180;58088;51.186;17.130;2022-10-17T09:25:03;101312.00;;;23.36
70533;BMP180;58088;51.186;17.130;2022-10-17T09:27:36;101313.40;;;23.40
70533;BMP180;58088;51.186;17.130;2022-10-17T09:30:14;101312.60;;;23.50
70533;BMP180;58088;51.186;17.130;2022-10-17T09:32:42;101315.80;;;23.60
70533;BMP180;58088;51.186;17.130;2022-10-17T09:35:32;101309.40;;;23.60
70533;BMP180;58088;51.186;17.130;2022-10-17T09:37:59;101308.40;;;23.64
70533;BMP180;58088;51.186;17.130;2022-10-17T09:40:32;101303.80;;;23.60
70533;BMP180;58088;51.186;17.130;2022-10-17T09:43:04;101305.80;;;23.60
70533;BMP180;58088;51.186;17.130;2022-10-17T09:45:39;101309.40;;;23.70
70533;BMP180;58088;51.186;17.130;2022-10-17T09:48:26;101309.00;;;23.80
70533;BMP180;58088;51.186;17.130;2022-10-17T09:50:55;101313.40;;;23.90
70533;BMP180;58088;51.186;17.130;2022-10-17T09:53:30;101312.80;;;24.00
70533;BMP180;58088;51.186;17.130;2022-10-17T09:56:01;101308.60;;;24.00
70533;BMP180;58088;51.186;17.130;2022-10-17T09:58:50;101314.20;;;23.90
70533;BMP180;58088;51.186;17.130;2022-10-17T10:01:24;101310.60;;;23.90
70533;BMP180;58088;51.186;17.130;2022-10-17T10:04:11;101309.20;;;23.90
70533;BMP180;58088;51.186;17.130;2022-10-17T10:06:40;101310.60;;;24.00
70533;BMP180;58088;51.186;17.130;2022-10-17T10:09:22;101309.00;;;24.00
70533;BMP180;58088;51.186;17.130;2022-10-17T10:11:54;101307.40;;;24.10
70533;BMP180;58088;51.186;17.130;2022-10-17T10:14:39;101305.40;;;24.20
70533;BMP180;58088;51.186;17.130;2022-10-17T10:19:59;101306.60;;;24.30
70533;BMP180;58088;51.186;17.130;2022-10-17T10:22:26;101306.40;;;24.30
70533;BMP180;58088;51.186;17.130;2022-10-17T10:25:16;101302.40;;;24.40
70533;BMP180;58088;51.186;17.130;2022-10-17T10:27:44;101308.20;;;24.40
70533;BMP180;58088;51.186;17.130;2022-10-17T10:30:27;101306.00;;;24.50
70533;BMP180;58088;51.186;17.130;2022-10-17T10:32:57;101306.80;;;24.60
70533;BMP180;58088;51.186;17.130;2022-10-17T10:35:35;101304.40;;;24.68
70533;BMP180;58088;51.186;17.130;2022-10-17T10:38:09;101303.60;;;24.80
70533;BMP180;58088;51.186;17.130;2022-10-17T10:40:47;101301.00;;;24.80
70533;BMP180;58088;51.186;17.130;2022-10-17T10:43:41;101304.00;;;24.90
70533;BMP180;58088;51.186;17.130;2022-10-17T10:46:20;101297.60;;;25.00
70533;BMP180;58088;51.186;17.130;2022-10-17T10:48:59;101300.80;;;25.06
70533;BMP180;58088;51.186;17.130;2022-10-17T10:54:12;101294.60;;;25.10
70533;BMP180;58088;51.186;17.130;2022-10-17T10:56:49;101299.60;;;25.20
70533;BMP180;58088;51.186;17.130;2022-10-17T10:59:17;101296.80;;;25.20
70533;BMP180;58088;51.186;17.130;2022-10-17T11:01:55;101295.00;;;25.30
70533;BMP180;58088;51.186;17.130;2022-10-17T11:04:42;101283.60;;;25.30
70533;BMP180;58088;51.186;17.130;2022-10-17T11:07:18;101287.00;;;25.40
70533;BMP180;58088;51.186;17.130;2022-10-17T11:12:46;101291.60;;;25.50
70533;BMP180;58088;51.186;17.130;2022-10-17T11:18:06;101283.80;;;25.50
70533;BMP180;58088;51.186;17.130;2022-10-17T11:21:02;101283.40;;;25.50
70533;BMP180;58088;51.186;17.130;2022-10-17T11:23:47;101281.20;;;25.50
70533;BMP180;58088;51.186;17.130;2022-10-17T11:29:12;101278.80;;;25.60
70533;BMP180;58088;51.186;17.130;2022-10-17T11:32:45;101275.80;;;25.70
70533;BMP180;58088;51.186;17.130;2022-10-17T11:35:03;101269.40;;;25.60
70533;BMP180;58088;51.186;17.130;2022-10-17T11:37:46;101269.20;;;25.70
70533;BMP180;58088;51.186;17.130;2022-10-17T11:40:28;101269.80;;;25.70
70533;BMP180;58088;51.186;17.130;2022-10-17T11:43:03;101267.80;;;25.60
70533;BMP180;58088;51.186;17.130;2022-10-17T11:45:38;101270.80;;;25.70
70533;BMP180;58088;51.186;17.130;2022-10-17T11:48:22;101266.40;;;25.70
70533;BMP180;58088;51.186;17.130;2022-10-17T11:51:08;101262.80;;;25.80
70533;BMP180;58088;51.186;17.130;2022-10-17T11:54:12;101258.40;;;25.90
70533;BMP180;58088;51.186;17.130;2022-10-17T12:02:04;101257.20;;;25.90
70533;BMP180;58088;51.186;17.130;2022-10-17T12:10:46;101244.20;;;25.90
70533;BMP180;58088;51.186;17.130;2022-10-17T12:12:45;101248.60;;;25.80
70533;BMP180;58088;51.186;17.130;2022-10-17T12:17:45;101247.00;;;25.90
70533;BMP180;58088;51.186;17.130;2022-10-17T12:23:03;101241.00;;;25.90
70533;BMP180;58088;51.186;17.130;2022-10-17T12:25:33;101242.40;;;25.94
70533;BMP180;58088;51.186;17.130;2022-10-17T12:28:15;101237.40;;;25.90
70533;BMP180;58088;51.186;17.130;2022-10-17T12:31:22;101245.40;;;25.90
70533;BMP180;58088;51.186;17.130;2022-10-17T12:33:54;101241.40;;;25.82
70533;BMP180;58088;51.186;17.130;2022-10-17T12:49:46;101234.00;;;25.90
70533;BMP180;58088;51.186;17.130;2022-10-17T12:52:21;101226.20;;;25.90
70533;BMP180;58088;51.186;17.130;2022-10-17T12:58:02;101226.40;;;25.90
70533;BMP180;58088;51.186;17.130;2022-10-17T13:00:52;101234.40;;;26.00
70533;BMP180;58088;51.186;17.130;2022-10-17T13:03:31;101231.80;;;26.00
70533;BMP180;58088;51.186;17.130;2022-10-17T13:06:05;101232.60;;;26.00
70533;BMP180;58088;51.186;17.130;2022-10-17T13:08:32;101233.00;;;26.00
70533;BMP180;58088;51.186;17.130;2022-10-17T13:11:24;101237.20;;;26.00
70533;BMP180;58088;51.186;17.130;2022-10-17T13:13:57;101239.80;;;25.90
70533;BMP180;58088;51.186;17.130;2022-10-17T13:19:10;101227.60;;;26.00
70533;BMP180;58088;51.186;17.130;2022-10-17T13:21:37;101228.00;;;26.00
70533;BMP180;58088;51.186;17.130;2022-10-17T13:24:29;101230.60;;;26.00
70533;BMP180;58088;51.186;17.130;2022-10-17T13:26:56;101232.20;;;26.02
70533;BMP180;58088;51.186;17.130;2022-10-17T13:29:24;101235.00;;;26.00
70533;BMP180;58088;51.186;17.130;2022-10-17T13:31:54;101233.80;;;26.00
70533;BMP180;58088;51.186;17.130;2022-10-17T13:34:24;101226.20;;;26.00
70533;BMP180;58088;51.186;17.130;2022-10-17T13:37:14;101224.60;;;25.92
70533;BMP180;58088;51.186;17.130;2022-10-17T13:39:44;101225.80;;;25.90
70533;BMP180;58088;51.186;17.130;2022-10-17T13:42:30;101216.40;;;25.90
70533;BMP180;58088;51.186;17.130;2022-10-17T13:45:01;101214.40;;;25.80
70533;BMP180;58088;51.186;17.130;2022-10-17T13:47:36;101212.80;;;25.80
70533;BMP180;58088;51.186;17.130;2022-10-17T13:50:05;101215.20;;;25.78
70533;BMP180;58088;51.186;17.130;2022-10-17T13:52:32;101211.80;;;25.70
70533;BMP180;58088;51.186;17.130;2022-10-17T13:55:15;101216.20;;;25.70
70533;BMP180;58088;51.186;17.130;2022-10-17T13:57:41;101213.80;;;25.70
70533;BMP180;58088;51.186;17.130;2022-10-17T14:00:20;101216.60;;;25.70
70533;BMP180;58088;51.186;17.130;2022-10-17T14:02:47;101221.60;;;25.70
70533;BMP180;58088;51.186;17.130;2022-10-17T14:05:19;101221.00;;;25.64
70533;BMP180;58088;51.186;17.130;2022-10-17T14:07:54;101219.20;;;25.60
70533;BMP180;58088;51.186;17.130;2022-10-17T14:10:29;101213.20;;;25.50
70533;BMP180;58088;51.186;17.130;2022-10-17T14:12:57;101211.60;;;25.50
70533;BMP180;58088;51.186;17.130;2022-10-17T14:15:29;101209.20;;;25.50
70533;BMP180;58088;51.186;17.130;2022-10-17T14:18:03;101210.80;;;25.50
70533;BMP180;58088;51.186;17.130;2022-10-17T14:20:30;101211.40;;;25.50
70533;BMP180;58088;51.186;17.130;2022-10-17T14:22:59;101204.60;;;25.50
70533;BMP180;58088;51.186;17.130;2022-10-17T14:25:33;101204.20;;;25.50
70533;BMP180;58088;51.186;17.130;2022-10-17T14:30:47;101207.20;;;25.40
70533;BMP180;58088;51.186;17.130;2022-10-17T14:33:26;101206.20;;;25.40
70533;BMP180;58088;51.186;17.130;2022-10-17T14:35:56;101208.20;;;25.34
70533;BMP180;58088;51.186;17.130;2022-10-17T14:38:23;101208.40;;;25.30
70533;BMP180;58088;51.186;17.130;2022-10-17T14:41:02;101205.20;;;25.30
70533;BMP180;58088;51.186;17.130;2022-10-17T14:43:31;101200.20;;;25.30
70533;BMP180;58088;51.186;17.130;2022-10-17T14:46:01;101202.40;;;25.20
70533;BMP180;58088;51.186;17.130;2022-10-17T14:48:29;101205.60;;;25.20
70533;BMP180;58088;51.186;17.130;2022-10-17T14:51:06;101203.80;;;25.10
70533;BMP180;58088;51.186;17.130;2022-10-17T14:53:33;101203.40;;;25.10
70533;BMP180;58088;51.186;17.130;2022-10-17T14:56:25;101203.60;;;25.10
70533;BMP180;58088;51.186;17.130;2022-10-17T14:58:52;101203.20;;;25.04
70533;BMP180;58088;51.186;17.130;2022-10-17T15:01:19;101197.40;;;25.00
70533;BMP180;58088;51.186;17.130;2022-10-17T15:03:45;101196.00;;;24.90
70533;BMP180;58088;51.186;17.130;2022-10-17T15:06:23;101196.20;;;24.90
70533;BMP180;58088;51.186;17.130;2022-10-17T15:08:51;101191.20;;;24.90
70533;BMP180;58088;51.186;17.130;2022-10-17T15:11:17;101191.80;;;24.80
70533;BMP180;58088;51.186;17.130;2022-10-17T15:14:03;101188.40;;;24.80
70533;BMP180;58088;51.186;17.130;2022-10-17T15:16:32;101191.80;;;24.80
70533;BMP180;58088;51.186;17.130;2022-10-17T15:18:59;101195.20;;;24.70
70533;BMP180;58088;51.186;17.130;2022-10-17T15:21:27;101203.60;;;24.70
70533;BMP180;58088;51.186;17.130;2022-10-17T15:23:54;101197.80;;;24.70
70533;BMP180;58088;51.186;17.130;2022-10-17T15:26:32;101195.20;;;24.66
70533;BMP180;58088;51.186;17.130;2022-10-17T15:29:00;101200.80;;;24.60
70533;BMP180;58088;51.186;17.130;2022-10-17T15:31:29;101195.80;;;24.50
70533;BMP180;58088;51.186;17.130;2022-10-17T15:33:56;101197.80;;;24.40
70533;BMP180;58088;51.186;17.130;2022-10-17T15:36:38;101201.80;;;24.30
70533;BMP180;58088;51.186;17.130;2022-10-17T15:39:05;101195.40;;;24.20
70533;BMP180;58088;51.186;17.130;2022-10-17T15:41:32;101195.40;;;24.10
70533;BMP180;58088;51.186;17.130;2022-10-17T15:43:59;101198.00;;;24.00
70533;BMP180;58088;51.186;17.130;2022-10-17T15:46:29;101197.80;;;23.90
70533;BMP180;58088;51.186;17.130;2022-10-17T15:49:04;101190.80;;;23.80
70533;BMP180;58088;51.186;17.130;2022-10-17T15:51:32;101195.20;;;23.70
70533;BMP180;58088;51.186;17.130;2022-10-17T15:53:58;101194.00;;;23.60
70533;BMP180;58088;51.186;17.130;2022-10-17T15:56:52;101189.60;;;23.60
70533;BMP180;58088;51.186;17.130;2022-10-17T15:59:31;101188.20;;;23.50